Main page
METAR-TAF:

METAR-TAF

Airports :

Kirkwall Airport

Kirkwall, Scotland

latitude: 58-57N, longitude: 002-54W, elevation: 21 m

Current weather observation

The report was made 54 minutes ago, at 18:20 UTC
Wind 10 kt from the North
Temperature 12°C
Humidity 88%
Pressure 1011 hPa
Visibility 10 km or more
Few clouds at a height of 800 ft
Broken clouds at a height of 1100 ft

METAR: EGPA 141820Z 36010KT 9999 FEW008 BKN011 12/10 Q1011

Time: 20:14 (19:14 UTC)

Forecast

The report was made 2 hours and 14 minutes ago, at 17:00 UTC
Forecast valid from 14 at 18 UTC to 15 at 03 UTC
Wind 12 kt from the North
Visibility 10 km or more
Scattered clouds at a height of 800 ft
Broken clouds at a height of 1200 ft
Temporary
from 14 at 18 UTC to 15 at 03 UTC
Broken clouds at a height of 600 ft
Probability 40% :
Temporary
from 14 at 21 UTC to 15 at 03 UTC
Visibility: 5000 m
Broken clouds at a height of 300 ft
light drizzle,

TAF: EGPA 141700Z 1418/1503 01012KT 9999 SCT008 BKN012 TEMPO 1418/1503 BKN006 PROB40 TEMPO 1421/1503 5000 -DZ BKN003

Weather observations and forecasts of more than 4000 airports (METAR and TAF reports).

The available stations are represented by yellow and red dots on the map.

Hover mouse over dot to see the name of the station.

Then click to see weather observations and forecasts.

To change the map : click on the green buttons with a black cross to zoom in, on the green button with a dash to zoom out, or on the green arrows for adjacent maps.


METAR-TAF: